sensor_id;sensor_type;location;lat;lon;timestamp;P1;durP1;ratioP1;P2;durP2;ratioP2
21539;SDS011;10931;52.164;5.518;2023-02-28T00:01:25;2.03;;;1.05;;
21539;SDS011;10931;52.164;5.518;2023-02-28T00:03:54;2.50;;;1.35;;
21539;SDS011;10931;52.164;5.518;2023-02-28T00:06:21;2.47;;;1.20;;
21539;SDS011;10931;52.164;5.518;2023-02-28T00:08:49;2.08;;;1.30;;
21539;SDS011;10931;52.164;5.518;2023-02-28T00:11:15;2.35;;;1.15;;
21539;SDS011;10931;52.164;5.518;2023-02-28T00:13:41;2.40;;;1.25;;
21539;SDS011;10931;52.164;5.518;2023-02-28T00:16:18;1.70;;;0.95;;
21539;SDS011;10931;52.164;5.518;2023-02-28T00:18:48;2.13;;;1.23;;
21539;SDS011;10931;52.164;5.518;2023-02-28T00:21:15;2.08;;;1.10;;
21539;SDS011;10931;52.164;5.518;2023-02-28T00:23:42;1.67;;;1.10;;
21539;SDS011;10931;52.164;5.518;2023-02-28T00:26:08;1.45;;;1.17;;
21539;SDS011;10931;52.164;5.518;2023-02-28T00:28:34;2.25;;;1.10;;
21539;SDS011;10931;52.164;5.518;2023-02-28T00:31:00;2.40;;;1.20;;
21539;SDS011;10931;52.164;5.518;2023-02-28T00:33:26;2.30;;;1.20;;
21539;SDS011;10931;52.164;5.518;2023-02-28T00:35:54;2.08;;;1.10;;
21539;SDS011;10931;52.164;5.518;2023-02-28T00:38:32;3.20;;;1.10;;
21539;SDS011;10931;52.164;5.518;2023-02-28T00:40:57;2.22;;;1.20;;
21539;SDS011;10931;52.164;5.518;2023-02-28T00:43:29;2.50;;;0.95;;
21539;SDS011;10931;52.164;5.518;2023-02-28T00:45:57;2.08;;;1.00;;
21539;SDS011;10931;52.164;5.518;2023-02-28T00:48:23;1.77;;;0.80;;
21539;SDS011;10931;52.164;5.518;2023-02-28T00:50:51;1.95;;;1.05;;
21539;SDS011;10931;52.164;5.518;2023-02-28T00:53:24;1.70;;;1.00;;
21539;SDS011;10931;52.164;5.518;2023-02-28T00:55:53;1.80;;;1.00;;
21539;SDS011;10931;52.164;5.518;2023-02-28T00:58:21;1.80;;;0.95;;
21539;SDS011;10931;52.164;5.518;2023-02-28T01:00:47;1.60;;;0.90;;
21539;SDS011;10931;52.164;5.518;2023-02-28T01:03:14;2.33;;;0.98;;
21539;SDS011;10931;52.164;5.518;2023-02-28T01:05:43;2.25;;;1.33;;
21539;SDS011;10931;52.164;5.518;2023-02-28T01:08:09;1.65;;;1.00;;
21539;SDS011;10931;52.164;5.518;2023-02-28T01:10:35;2.30;;;1.10;;
21539;SDS011;10931;52.164;5.518;2023-02-28T01:13:01;1.60;;;1.05;;
21539;SDS011;10931;52.164;5.518;2023-02-28T01:15:28;2.72;;;1.00;;
21539;SDS011;10931;52.164;5.518;2023-02-28T01:17:57;2.13;;;1.00;;
21539;SDS011;10931;52.164;5.518;2023-02-28T01:20:23;1.52;;;0.90;;
21539;SDS011;10931;52.164;5.518;2023-02-28T01:22:51;1.48;;;0.90;;
21539;SDS011;10931;52.164;5.518;2023-02-28T01:25:17;2.88;;;1.00;;
21539;SDS011;10931;52.164;5.518;2023-02-28T01:27:43;1.40;;;0.90;;
21539;SDS011;10931;52.164;5.518;2023-02-28T01:30:11;2.40;;;0.98;;
21539;SDS011;10931;52.164;5.518;2023-02-28T01:32:36;1.08;;;0.80;;
21539;SDS011;10931;52.164;5.518;2023-02-28T01:35:02;1.65;;;1.00;;
21539;SDS011;10931;52.164;5.518;2023-02-28T01:37:28;1.33;;;0.90;;
21539;SDS011;10931;52.164;5.518;2023-02-28T01:39:54;1.63;;;0.90;;
21539;SDS011;10931;52.164;5.518;2023-02-28T01:42:23;1.88;;;1.02;;
21539;SDS011;10931;52.164;5.518;2023-02-28T01:47:47;1.50;;;0.63;;
21539;SDS011;10931;52.164;5.518;2023-02-28T01:50:21;1.73;;;0.90;;
21539;SDS011;10931;52.164;5.518;2023-02-28T01:52:55;1.40;;;0.88;;
21539;SDS011;10931;52.164;5.518;2023-02-28T01:55:23;2.03;;;0.90;;
21539;SDS011;10931;52.164;5.518;2023-02-28T01:57:54;1.48;;;0.90;;
21539;SDS011;10931;52.164;5.518;2023-02-28T02:00:23;1.88;;;1.00;;
21539;SDS011;10931;52.164;5.518;2023-02-28T02:02:54;1.38;;;0.98;;
21539;SDS011;10931;52.164;5.518;2023-02-28T02:05:28;1.35;;;0.80;;
21539;SDS011;10931;52.164;5.518;2023-02-28T02:08:18;1.60;;;0.80;;
21539;SDS011;10931;52.164;5.518;2023-02-28T02:10:53;1.40;;;0.80;;
21539;SDS011;10931;52.164;5.518;2023-02-28T02:19:10;2.05;;;0.98;;
21539;SDS011;10931;52.164;5.518;2023-02-28T02:27:27;1.25;;;0.80;;
21539;SDS011;10931;52.164;5.518;2023-02-28T02:30:18;1.00;;;0.68;;
21539;SDS011;10931;52.164;5.518;2023-02-28T02:33:10;1.27;;;0.70;;
21539;SDS011;10931;52.164;5.518;2023-02-28T02:35:49;1.05;;;0.80;;
21539;SDS011;10931;52.164;5.518;2023-02-28T02:38:27;1.52;;;0.80;;
21539;SDS011;10931;52.164;5.518;2023-02-28T02:43:50;1.23;;;0.70;;
21539;SDS011;10931;52.164;5.518;2023-02-28T02:46:29;1.23;;;0.75;;
21539;SDS011;10931;52.164;5.518;2023-02-28T02:49:03;1.35;;;0.95;;
21539;SDS011;10931;52.164;5.518;2023-02-28T02:51:33;1.40;;;0.70;;
21539;SDS011;10931;52.164;5.518;2023-02-28T02:54:02;1.02;;;0.63;;
21539;SDS011;10931;52.164;5.518;2023-02-28T02:56:31;1.30;;;0.80;;
21539;SDS011;10931;52.164;5.518;2023-02-28T02:59:01;2.28;;;0.75;;
21539;SDS011;10931;52.164;5.518;2023-02-28T03:01:30;1.38;;;0.70;;
21539;SDS011;10931;52.164;5.518;2023-02-28T03:03:57;2.35;;;0.80;;
21539;SDS011;10931;52.164;5.518;2023-02-28T03:06:25;1.63;;;0.70;;
21539;SDS011;10931;52.164;5.518;2023-02-28T03:08:51;1.80;;;0.80;;
21539;SDS011;10931;52.164;5.518;2023-02-28T03:11:17;1.50;;;0.77;;
21539;SDS011;10931;52.164;5.518;2023-02-28T03:26:58;1.50;;;0.80;;
21539;SDS011;10931;52.164;5.518;2023-02-28T03:32:12;2.03;;;0.70;;
21539;SDS011;10931;52.164;5.518;2023-02-28T03:35:09;0.60;;;0.60;;
21539;SDS011;10931;52.164;5.518;2023-02-28T03:38:08;1.55;;;0.70;;
21539;SDS011;10931;52.164;5.518;2023-02-28T03:40:39;2.03;;;0.90;;
21539;SDS011;10931;52.164;5.518;2023-02-28T03:43:22;1.73;;;0.80;;
21539;SDS011;10931;52.164;5.518;2023-02-28T03:45:52;1.00;;;0.77;;
21539;SDS011;10931;52.164;5.518;2023-02-28T03:48:44;0.95;;;0.50;;
21539;SDS011;10931;52.164;5.518;2023-02-28T03:51:16;0.98;;;0.60;;
21539;SDS011;10931;52.164;5.518;2023-02-28T03:53:52;0.93;;;0.60;;
21539;SDS011;10931;52.164;5.518;2023-02-28T03:56:44;1.20;;;0.77;;
21539;SDS011;10931;52.164;5.518;2023-02-28T03:59:28;1.30;;;0.68;;
21539;SDS011;10931;52.164;5.518;2023-02-28T04:01:59;1.27;;;0.65;;
21539;SDS011;10931;52.164;5.518;2023-02-28T04:04:27;1.17;;;0.60;;
21539;SDS011;10931;52.164;5.518;2023-02-28T04:06:53;0.77;;;0.70;;
21539;SDS011;10931;52.164;5.518;2023-02-28T04:09:36;1.05;;;0.60;;
21539;SDS011;10931;52.164;5.518;2023-02-28T04:12:01;1.20;;;0.60;;
21539;SDS011;10931;52.164;5.518;2023-02-28T04:14:27;0.73;;;0.60;;
21539;SDS011;10931;52.164;5.518;2023-02-28T04:16:56;0.70;;;0.40;;
21539;SDS011;10931;52.164;5.518;2023-02-28T04:19:21;0.73;;;0.60;;
21539;SDS011;10931;52.164;5.518;2023-02-28T04:21:50;1.02;;;0.60;;
21539;SDS011;10931;52.164;5.518;2023-02-28T04:24:19;1.10;;;0.65;;
21539;SDS011;10931;52.164;5.518;2023-02-28T04:26:47;0.88;;;0.60;;
21539;SDS011;10931;52.164;5.518;2023-02-28T04:29:21;1.25;;;0.60;;
21539;SDS011;10931;52.164;5.518;2023-02-28T04:31:49;1.25;;;0.80;;
21539;SDS011;10931;52.164;5.518;2023-02-28T04:34:24;1.10;;;0.65;;
21539;SDS011;10931;52.164;5.518;2023-02-28T04:36:50;0.93;;;0.68;;
21539;SDS011;10931;52.164;5.518;2023-02-28T04:39:19;1.25;;;0.70;;
21539;SDS011;10931;52.164;5.518;2023-02-28T04:41:49;0.93;;;0.60;;
21539;SDS011;10931;52.164;5.518;2023-02-28T04:44:15;0.60;;;0.50;;
21539;SDS011;10931;52.164;5.518;2023-02-28T04:46:42;1.30;;;0.75;;
21539;SDS011;10931;52.164;5.518;2023-02-28T04:49:10;1.10;;;0.65;;
21539;SDS011;10931;52.164;5.518;2023-02-28T04:51:37;0.90;;;0.60;;
21539;SDS011;10931;52.164;5.518;2023-02-28T04:54:06;1.25;;;0.60;;
21539;SDS011;10931;52.164;5.518;2023-02-28T04:56:35;1.05;;;0.70;;
21539;SDS011;10931;52.164;5.518;2023-02-28T04:59:00;0.80;;;0.60;;
21539;SDS011;10931;52.164;5.518;2023-02-28T05:01:28;0.50;;;0.43;;
21539;SDS011;10931;52.164;5.518;2023-02-28T05:03:56;0.95;;;0.60;;
21539;SDS011;10931;52.164;5.518;2023-02-28T05:06:23;1.38;;;0.50;;
21539;SDS011;10931;52.164;5.518;2023-02-28T05:08:51;0.60;;;0.50;;
21539;SDS011;10931;52.164;5.518;2023-02-28T05:11:26;0.65;;;0.50;;
21539;SDS011;10931;52.164;5.518;2023-02-28T05:14:00;0.65;;;0.55;;
21539;SDS011;10931;52.164;5.518;2023-02-28T05:16:27;1.10;;;0.60;;
21539;SDS011;10931;52.164;5.518;2023-02-28T05:18:53;0.95;;;0.50;;
21539;SDS011;10931;52.164;5.518;2023-02-28T05:24:20;0.43;;;0.43;;
21539;SDS011;10931;52.164;5.518;2023-02-28T05:26:48;1.35;;;0.73;;
21539;SDS011;10931;52.164;5.518;2023-02-28T05:29:16;0.90;;;0.60;;
21539;SDS011;10931;52.164;5.518;2023-02-28T05:31:44;0.80;;;0.50;;
21539;SDS011;10931;52.164;5.518;2023-02-28T05:34:10;1.05;;;0.70;;
21539;SDS011;10931;52.164;5.518;2023-02-28T05:36:37;0.63;;;0.50;;
21539;SDS011;10931;52.164;5.518;2023-02-28T05:39:05;0.50;;;0.47;;
21539;SDS011;10931;52.164;5.518;2023-02-28T05:41:32;0.77;;;0.40;;
21539;SDS011;10931;52.164;5.518;2023-02-28T05:43:58;0.90;;;0.63;;
21539;SDS011;10931;52.164;5.518;2023-02-28T05:46:27;0.75;;;0.50;;
21539;SDS011;10931;52.164;5.518;2023-02-28T05:48:55;0.70;;;0.40;;
21539;SDS011;10931;52.164;5.518;2023-02-28T05:51:23;1.85;;;0.70;;
21539;SDS011;10931;52.164;5.518;2023-02-28T05:53:52;1.42;;;0.60;;
21539;SDS011;10931;52.164;5.518;2023-02-28T05:56:20;0.88;;;0.50;;
21539;SDS011;10931;52.164;5.518;2023-02-28T05:58:45;0.43;;;0.40;;
21539;SDS011;10931;52.164;5.518;2023-02-28T06:01:33;0.50;;;0.47;;
21539;SDS011;10931;52.164;5.518;2023-02-28T06:04:01;1.13;;;0.60;;
21539;SDS011;10931;52.164;5.518;2023-02-28T06:06:27;1.70;;;0.70;;
21539;SDS011;10931;52.164;5.518;2023-02-28T06:08:54;1.20;;;0.40;;
21539;SDS011;10931;52.164;5.518;2023-02-28T06:11:21;2.05;;;0.52;;
21539;SDS011;10931;52.164;5.518;2023-02-28T06:13:52;1.10;;;0.40;;
21539;SDS011;10931;52.164;5.518;2023-02-28T06:16:19;0.68;;;0.50;;
21539;SDS011;10931;52.164;5.518;2023-02-28T06:18:48;0.50;;;0.50;;
21539;SDS011;10931;52.164;5.518;2023-02-28T06:21:14;0.77;;;0.50;;
21539;SDS011;10931;52.164;5.518;2023-02-28T06:23:39;2.35;;;0.60;;
21539;SDS011;10931;52.164;5.518;2023-02-28T06:26:05;1.40;;;0.75;;
21539;SDS011;10931;52.164;5.518;2023-02-28T06:28:31;0.70;;;0.50;;
21539;SDS011;10931;52.164;5.518;2023-02-28T06:31:04;0.50;;;0.30;;
21539;SDS011;10931;52.164;5.518;2023-02-28T06:33:31;0.60;;;0.50;;
21539;SDS011;10931;52.164;5.518;2023-02-28T06:35:57;0.80;;;0.50;;
21539;SDS011;10931;52.164;5.518;2023-02-28T06:38:22;0.40;;;0.38;;
21539;SDS011;10931;52.164;5.518;2023-02-28T06:43:41;1.08;;;0.45;;
21539;SDS011;10931;52.164;5.518;2023-02-28T06:46:08;1.00;;;0.50;;
21539;SDS011;10931;52.164;5.518;2023-02-28T06:48:36;0.98;;;0.50;;
21539;SDS011;10931;52.164;5.518;2023-02-28T06:51:18;0.60;;;0.40;;
21539;SDS011;10931;52.164;5.518;2023-02-28T06:56:38;1.05;;;0.70;;
21539;SDS011;10931;52.164;5.518;2023-02-28T06:59:04;1.52;;;0.35;;
21539;SDS011;10931;52.164;5.518;2023-02-28T07:01:32;0.40;;;0.40;;
21539;SDS011;10931;52.164;5.518;2023-02-28T07:03:58;0.47;;;0.40;;
21539;SDS011;10931;52.164;5.518;2023-02-28T07:06:27;1.70;;;0.40;;
21539;SDS011;10931;52.164;5.518;2023-02-28T07:08:53;0.70;;;0.60;;
21539;SDS011;10931;52.164;5.518;2023-02-28T07:11:23;1.48;;;0.50;;
21539;SDS011;10931;52.164;5.518;2023-02-28T07:13:52;1.05;;;0.50;;
21539;SDS011;10931;52.164;5.518;2023-02-28T07:16:19;0.70;;;0.50;;
21539;SDS011;10931;52.164;5.518;2023-02-28T07:18:45;0.70;;;0.45;;
21539;SDS011;10931;52.164;5.518;2023-02-28T07:21:11;0.45;;;0.45;;
21539;SDS011;10931;52.164;5.518;2023-02-28T07:23:37;0.98;;;0.57;;
21539;SDS011;10931;52.164;5.518;2023-02-28T07:26:12;0.90;;;0.40;;
21539;SDS011;10931;52.164;5.518;2023-02-28T07:28:43;0.75;;;0.47;;
21539;SDS011;10931;52.164;5.518;2023-02-28T07:31:10;0.50;;;0.40;;
21539;SDS011;10931;52.164;5.518;2023-02-28T07:33:37;0.75;;;0.50;;
21539;SDS011;10931;52.164;5.518;2023-02-28T07:36:08;1.02;;;0.50;;
21539;SDS011;10931;52.164;5.518;2023-02-28T07:38:42;0.52;;;0.50;;
21539;SDS011;10931;52.164;5.518;2023-02-28T07:41:09;1.25;;;0.50;;
21539;SDS011;10931;52.164;5.518;2023-02-28T07:43:38;0.98;;;0.50;;
21539;SDS011;10931;52.164;5.518;2023-02-28T07:46:04;0.80;;;0.35;;
21539;SDS011;10931;52.164;5.518;2023-02-28T07:48:31;0.50;;;0.40;;
21539;SDS011;10931;52.164;5.518;2023-02-28T07:50:58;1.08;;;0.50;;
21539;SDS011;10931;52.164;5.518;2023-02-28T07:53:25;0.43;;;0.38;;
21539;SDS011;10931;52.164;5.518;2023-02-28T07:55:54;0.68;;;0.50;;
21539;SDS011;10931;52.164;5.518;2023-02-28T07:58:24;1.50;;;0.55;;
21539;SDS011;10931;52.164;5.518;2023-02-28T08:00:52;0.85;;;0.50;;
21539;SDS011;10931;52.164;5.518;2023-02-28T08:03:18;0.65;;;0.55;;
21539;SDS011;10931;52.164;5.518;2023-02-28T08:05:46;1.05;;;0.50;;
21539;SDS011;10931;52.164;5.518;2023-02-28T08:08:12;1.05;;;0.52;;
21539;SDS011;10931;52.164;5.518;2023-02-28T08:10:39;1.00;;;0.52;;
21539;SDS011;10931;52.164;5.518;2023-02-28T08:13:08;0.70;;;0.60;;
21539;SDS011;10931;52.164;5.518;2023-02-28T08:15:33;0.40;;;0.30;;
21539;SDS011;10931;52.164;5.518;2023-02-28T08:17:59;1.08;;;0.70;;
21539;SDS011;10931;52.164;5.518;2023-02-28T08:20:27;2.38;;;0.68;;
21539;SDS011;10931;52.164;5.518;2023-02-28T08:22:55;1.90;;;0.60;;
21539;SDS011;10931;52.164;5.518;2023-02-28T08:25:21;0.95;;;0.47;;
21539;SDS011;10931;52.164;5.518;2023-02-28T08:27:47;0.70;;;0.60;;
21539;SDS011;10931;52.164;5.518;2023-02-28T08:30:22;1.08;;;0.50;;
21539;SDS011;10931;52.164;5.518;2023-02-28T08:41:25;2.75;;;0.55;;
21539;SDS011;10931;52.164;5.518;2023-02-28T08:43:52;0.80;;;0.50;;
21539;SDS011;10931;52.164;5.518;2023-02-28T08:46:24;0.93;;;0.70;;
21539;SDS011;10931;52.164;5.518;2023-02-28T08:49:09;0.70;;;0.55;;
21539;SDS011;10931;52.164;5.518;2023-02-28T08:52:09;1.42;;;0.60;;
21539;SDS011;10931;52.164;5.518;2023-02-28T08:55:03;2.72;;;0.75;;
21539;SDS011;10931;52.164;5.518;2023-02-28T08:57:58;1.90;;;0.50;;
21539;SDS011;10931;52.164;5.518;2023-02-28T09:00:29;1.40;;;0.93;;
21539;SDS011;10931;52.164;5.518;2023-02-28T09:02:54;3.63;;;0.68;;
21539;SDS011;10931;52.164;5.518;2023-02-28T09:05:23;1.08;;;0.40;;
21539;SDS011;10931;52.164;5.518;2023-02-28T09:07:54;6.60;;;1.00;;
21539;SDS011;10931;52.164;5.518;2023-02-28T09:10:19;4.35;;;0.82;;
21539;SDS011;10931;52.164;5.518;2023-02-28T09:12:45;1.77;;;0.50;;
21539;SDS011;10931;52.164;5.518;2023-02-28T09:15:20;1.00;;;0.52;;
21539;SDS011;10931;52.164;5.518;2023-02-28T09:17:56;4.60;;;0.77;;
21539;SDS011;10931;52.164;5.518;2023-02-28T09:20:28;3.08;;;0.85;;
21539;SDS011;10931;52.164;5.518;2023-02-28T09:22:54;3.90;;;0.85;;
21539;SDS011;10931;52.164;5.518;2023-02-28T09:25:22;1.17;;;0.43;;
21539;SDS011;10931;52.164;5.518;2023-02-28T09:27:48;1.88;;;1.15;;
21539;SDS011;10931;52.164;5.518;2023-02-28T09:30:14;1.55;;;0.85;;
21539;SDS011;10931;52.164;5.518;2023-02-28T09:32:40;1.75;;;0.90;;
21539;SDS011;10931;52.164;5.518;2023-02-28T09:35:16;2.05;;;0.70;;
21539;SDS011;10931;52.164;5.518;2023-02-28T09:37:43;2.83;;;0.88;;
21539;SDS011;10931;52.164;5.518;2023-02-28T09:40:11;1.20;;;0.70;;
21539;SDS011;10931;52.164;5.518;2023-02-28T09:48:57;1.70;;;0.70;;
21539;SDS011;10931;52.164;5.518;2023-02-28T09:54:18;1.63;;;0.60;;
21539;SDS011;10931;52.164;5.518;2023-02-28T10:03:35;2.17;;;0.68;;
21539;SDS011;10931;52.164;5.518;2023-02-28T10:06:35;1.63;;;0.60;;
21539;SDS011;10931;52.164;5.518;2023-02-28T10:09:19;1.27;;;0.70;;
21539;SDS011;10931;52.164;5.518;2023-02-28T10:11:54;1.90;;;0.80;;
21539;SDS011;10931;52.164;5.518;2023-02-28T10:14:45;1.63;;;0.68;;
21539;SDS011;10931;52.164;5.518;2023-02-28T10:17:35;3.50;;;0.70;;
21539;SDS011;10931;52.164;5.518;2023-02-28T10:20:27;1.83;;;0.60;;
21539;SDS011;10931;52.164;5.518;2023-02-28T10:26:20;2.67;;;0.63;;
21539;SDS011;10931;52.164;5.518;2023-02-28T10:29:02;2.53;;;0.60;;
21539;SDS011;10931;52.164;5.518;2023-02-28T10:31:33;3.15;;;0.60;;
21539;SDS011;10931;52.164;5.518;2023-02-28T10:55:25;1.50;;;0.70;;
21539;SDS011;10931;52.164;5.518;2023-02-28T10:58:28;1.38;;;0.60;;
21539;SDS011;10931;52.164;5.518;2023-02-28T11:07:00;1.30;;;0.60;;
21539;SDS011;10931;52.164;5.518;2023-02-28T11:09:37;2.35;;;0.57;;
21539;SDS011;10931;52.164;5.518;2023-02-28T11:12:26;0.50;;;0.50;;
21539;SDS011;10931;52.164;5.518;2023-02-28T11:38:41;2.90;;;0.88;;
21539;SDS011;10931;52.164;5.518;2023-02-28T11:41:27;5.13;;;0.95;;
21539;SDS011;10931;52.164;5.518;2023-02-28T11:44:02;1.55;;;0.50;;
21539;SDS011;10931;52.164;5.518;2023-02-28T11:47:11;1.67;;;0.60;;
21539;SDS011;10931;52.164;5.518;2023-02-28T11:55:26;0.90;;;0.43;;
21539;SDS011;10931;52.164;5.518;2023-02-28T12:09:37;1.40;;;0.60;;
21539;SDS011;10931;52.164;5.518;2023-02-28T12:15:24;1.13;;;0.47;;
21539;SDS011;10931;52.164;5.518;2023-02-28T12:21:00;1.90;;;0.60;;
21539;SDS011;10931;52.164;5.518;2023-02-28T12:29:10;1.90;;;0.50;;
21539;SDS011;10931;52.164;5.518;2023-02-28T12:32:46;1.17;;;0.40;;
21539;SDS011;10931;52.164;5.518;2023-02-28T12:37:33;2.92;;;0.60;;
21539;SDS011;10931;52.164;5.518;2023-02-28T12:40:14;1.60;;;0.50;;
21539;SDS011;10931;52.164;5.518;2023-02-28T12:42:57;2.03;;;0.88;;
21539;SDS011;10931;52.164;5.518;2023-02-28T12:50:30;7.65;;;0.90;;
21539;SDS011;10931;52.164;5.518;2023-02-28T12:55:46;2.15;;;0.90;;
21539;SDS011;10931;52.164;5.518;2023-02-28T13:01:20;6.13;;;1.15;;
21539;SDS011;10931;52.164;5.518;2023-02-28T13:04:12;13.95;;;1.30;;
21539;SDS011;10931;52.164;5.518;2023-02-28T13:09:33;9.85;;;1.55;;
21539;SDS011;10931;52.164;5.518;2023-02-28T13:11:58;14.63;;;1.73;;
21539;SDS011;10931;52.164;5.518;2023-02-28T13:22:20;12.25;;;2.15;;
21539;SDS011;10931;52.164;5.518;2023-02-28T13:28:02;9.35;;;1.60;;
21539;SDS011;10931;52.164;5.518;2023-02-28T13:33:27;8.80;;;1.23;;
21539;SDS011;10931;52.164;5.518;2023-02-28T13:36:08;5.90;;;1.30;;
21539;SDS011;10931;52.164;5.518;2023-02-28T13:38:45;14.38;;;1.50;;
21539;SDS011;10931;52.164;5.518;2023-02-28T13:44:18;9.60;;;1.40;;
21539;SDS011;10931;52.164;5.518;2023-02-28T13:55:52;12.20;;;1.48;;
21539;SDS011;10931;52.164;5.518;2023-02-28T14:07:17;10.27;;;1.65;;
21539;SDS011;10931;52.164;5.518;2023-02-28T14:09:48;6.68;;;1.15;;
21539;SDS011;10931;52.164;5.518;2023-02-28T14:15:27;4.85;;;1.38;;
21539;SDS011;10931;52.164;5.518;2023-02-28T14:18:24;7.95;;;1.23;;
21539;SDS011;10931;52.164;5.518;2023-02-28T14:21:21;5.95;;;1.00;;
21539;SDS011;10931;52.164;5.518;2023-02-28T14:32:54;6.57;;;1.73;;
21539;SDS011;10931;52.164;5.518;2023-02-28T14:38:25;11.07;;;2.00;;
21539;SDS011;10931;52.164;5.518;2023-02-28T14:41:20;4.03;;;0.88;;
21539;SDS011;10931;52.164;5.518;2023-02-28T14:47:41;7.07;;;1.00;;
21539;SDS011;10931;52.164;5.518;2023-02-28T14:50:17;6.60;;;0.85;;
21539;SDS011;10931;52.164;5.518;2023-02-28T14:52:45;4.43;;;0.90;;
21539;SDS011;10931;52.164;5.518;2023-02-28T14:55:23;7.75;;;1.13;;
21539;SDS011;10931;52.164;5.518;2023-02-28T14:57:58;9.18;;;1.15;;
21539;SDS011;10931;52.164;5.518;2023-02-28T15:00:36;5.13;;;1.05;;
21539;SDS011;10931;52.164;5.518;2023-02-28T15:03:20;3.78;;;0.88;;
21539;SDS011;10931;52.164;5.518;2023-02-28T15:05:56;3.10;;;0.82;;
21539;SDS011;10931;52.164;5.518;2023-02-28T15:08:27;2.72;;;0.80;;
21539;SDS011;10931;52.164;5.518;2023-02-28T15:19:22;3.25;;;0.70;;
21539;SDS011;10931;52.164;5.518;2023-02-28T15:22:15;1.98;;;0.60;;
21539;SDS011;10931;52.164;5.518;2023-02-28T15:24:48;2.08;;;0.73;;
21539;SDS011;10931;52.164;5.518;2023-02-28T15:27:29;1.17;;;0.60;;
21539;SDS011;10931;52.164;5.518;2023-02-28T15:30:08;2.03;;;1.02;;
21539;SDS011;10931;52.164;5.518;2023-02-28T15:33:29;4.63;;;0.80;;
21539;SDS011;10931;52.164;5.518;2023-02-28T15:36:03;4.65;;;0.60;;
21539;SDS011;10931;52.164;5.518;2023-02-28T15:38:43;5.43;;;0.80;;
21539;SDS011;10931;52.164;5.518;2023-02-28T15:41:28;2.10;;;0.40;;
21539;SDS011;10931;52.164;5.518;2023-02-28T15:46:43;3.45;;;0.60;;
21539;SDS011;10931;52.164;5.518;2023-02-28T15:49:24;2.00;;;0.70;;
21539;SDS011;10931;52.164;5.518;2023-02-28T15:51:52;2.65;;;0.70;;
21539;SDS011;10931;52.164;5.518;2023-02-28T15:54:23;4.43;;;0.70;;
21539;SDS011;10931;52.164;5.518;2023-02-28T15:57:00;1.75;;;0.80;;
21539;SDS011;10931;52.164;5.518;2023-02-28T15:59:35;1.38;;;0.68;;
21539;SDS011;10931;52.164;5.518;2023-02-28T16:02:04;2.83;;;0.70;;
21539;SDS011;10931;52.164;5.518;2023-02-28T16:05:12;1.75;;;0.73;;
21539;SDS011;10931;52.164;5.518;2023-02-28T16:07:36;1.02;;;0.40;;
21539;SDS011;10931;52.164;5.518;2023-02-28T16:10:04;2.10;;;0.70;;
21539;SDS011;10931;52.164;5.518;2023-02-28T16:12:32;0.95;;;0.40;;
21539;SDS011;10931;52.164;5.518;2023-02-28T16:15:08;4.38;;;0.60;;
21539;SDS011;10931;52.164;5.518;2023-02-28T16:17:53;1.30;;;0.55;;
21539;SDS011;10931;52.164;5.518;2023-02-28T16:20:37;1.23;;;0.50;;
21539;SDS011;10931;52.164;5.518;2023-02-28T16:23:24;2.15;;;0.45;;
21539;SDS011;10931;52.164;5.518;2023-02-28T16:25:52;2.28;;;0.30;;
21539;SDS011;10931;52.164;5.518;2023-02-28T16:28:24;1.35;;;0.45;;
21539;SDS011;10931;52.164;5.518;2023-02-28T16:30:55;1.65;;;0.60;;
21539;SDS011;10931;52.164;5.518;2023-02-28T16:33:21;1.70;;;0.55;;
21539;SDS011;10931;52.164;5.518;2023-02-28T16:35:50;1.95;;;0.60;;
21539;SDS011;10931;52.164;5.518;2023-02-28T16:38:15;2.78;;;0.60;;
21539;SDS011;10931;52.164;5.518;2023-02-28T16:40:41;0.80;;;0.40;;
21539;SDS011;10931;52.164;5.518;2023-02-28T16:43:09;1.35;;;0.60;;
21539;SDS011;10931;52.164;5.518;2023-02-28T16:45:41;1.38;;;0.40;;
21539;SDS011;10931;52.164;5.518;2023-02-28T17:43:35;0.50;;;0.40;;
21539;SDS011;10931;52.164;5.518;2023-02-28T17:46:01;0.85;;;0.30;;
21539;SDS011;10931;52.164;5.518;2023-02-28T17:48:30;2.47;;;0.52;;
21539;SDS011;10931;52.164;5.518;2023-02-28T17:50:57;1.25;;;0.60;;
21539;SDS011;10931;52.164;5.518;2023-02-28T17:53:33;0.47;;;0.30;;
21539;SDS011;10931;52.164;5.518;2023-02-28T17:55:59;1.55;;;0.50;;
21539;SDS011;10931;52.164;5.518;2023-02-28T17:58:25;1.65;;;0.50;;
21539;SDS011;10931;52.164;5.518;2023-02-28T18:00:50;1.08;;;0.32;;
21539;SDS011;10931;52.164;5.518;2023-02-28T18:03:19;1.45;;;0.70;;
21539;SDS011;10931;52.164;5.518;2023-02-28T18:05:45;0.80;;;0.50;;
21539;SDS011;10931;52.164;5.518;2023-02-28T18:08:16;2.13;;;0.50;;
21539;SDS011;10931;52.164;5.518;2023-02-28T18:10:51;0.82;;;0.50;;
21539;SDS011;10931;52.164;5.518;2023-02-28T18:13:22;0.85;;;0.50;;
21539;SDS011;10931;52.164;5.518;2023-02-28T18:15:53;1.00;;;0.60;;
21539;SDS011;10931;52.164;5.518;2023-02-28T18:18:37;0.73;;;0.60;;
21539;SDS011;10931;52.164;5.518;2023-02-28T18:21:04;1.48;;;0.77;;
21539;SDS011;10931;52.164;5.518;2023-02-28T18:23:35;1.52;;;0.70;;
21539;SDS011;10931;52.164;5.518;2023-02-28T18:29:38;0.90;;;0.60;;
21539;SDS011;10931;52.164;5.518;2023-02-28T18:32:16;0.60;;;0.50;;
21539;SDS011;10931;52.164;5.518;2023-02-28T18:34:45;2.25;;;0.80;;
21539;SDS011;10931;52.164;5.518;2023-02-28T18:37:16;2.17;;;0.63;;
21539;SDS011;10931;52.164;5.518;2023-02-28T18:39:57;1.15;;;0.60;;
21539;SDS011;10931;52.164;5.518;2023-02-28T18:42:23;1.92;;;0.82;;
21539;SDS011;10931;52.164;5.518;2023-02-28T18:44:52;1.50;;;0.70;;
21539;SDS011;10931;52.164;5.518;2023-02-28T18:47:18;1.48;;;0.88;;
21539;SDS011;10931;52.164;5.518;2023-02-28T18:49:51;2.13;;;1.08;;
21539;SDS011;10931;52.164;5.518;2023-02-28T18:52:20;2.97;;;0.90;;
21539;SDS011;10931;52.164;5.518;2023-02-28T18:55:06;2.15;;;0.93;;
21539;SDS011;10931;52.164;5.518;2023-02-28T18:57:42;1.50;;;0.80;;
21539;SDS011;10931;52.164;5.518;2023-02-28T19:00:24;1.77;;;0.80;;
21539;SDS011;10931;52.164;5.518;2023-02-28T19:03:06;2.17;;;1.02;;
21539;SDS011;10931;52.164;5.518;2023-02-28T19:05:38;3.22;;;1.00;;
21539;SDS011;10931;52.164;5.518;2023-02-28T19:08:09;1.92;;;1.20;;
21539;SDS011;10931;52.164;5.518;2023-02-28T19:10:41;2.42;;;1.30;;
21539;SDS011;10931;52.164;5.518;2023-02-28T19:14:02;2.45;;;1.30;;
21539;SDS011;10931;52.164;5.518;2023-02-28T19:16:42;2.95;;;1.27;;
21539;SDS011;10931;52.164;5.518;2023-02-28T19:19:25;1.40;;;1.13;;
21539;SDS011;10931;52.164;5.518;2023-02-28T19:21:58;1.70;;;1.30;;
21539;SDS011;10931;52.164;5.518;2023-02-28T19:24:24;2.15;;;1.20;;
21539;SDS011;10931;52.164;5.518;2023-02-28T19:27:03;1.23;;;1.00;;
21539;SDS011;10931;52.164;5.518;2023-02-28T19:29:34;2.67;;;1.35;;
21539;SDS011;10931;52.164;5.518;2023-02-28T19:32:29;2.78;;;1.10;;
21539;SDS011;10931;52.164;5.518;2023-02-28T19:35:10;2.40;;;1.42;;
21539;SDS011;10931;52.164;5.518;2023-02-28T19:37:45;1.65;;;1.33;;
21539;SDS011;10931;52.164;5.518;2023-02-28T19:40:13;2.22;;;1.40;;
21539;SDS011;10931;52.164;5.518;2023-02-28T19:42:41;2.40;;;1.30;;
21539;SDS011;10931;52.164;5.518;2023-02-28T20:14:30;2.60;;;1.58;;
21539;SDS011;10931;52.164;5.518;2023-02-28T20:17:05;1.85;;;1.60;;
21539;SDS011;10931;52.164;5.518;2023-02-28T20:23:10;3.05;;;1.83;;
21539;SDS011;10931;52.164;5.518;2023-02-28T20:25:46;2.50;;;2.00;;
21539;SDS011;10931;52.164;5.518;2023-02-28T20:28:18;7.13;;;2.08;;
21539;SDS011;10931;52.164;5.518;2023-02-28T20:31:09;3.08;;;2.03;;
21539;SDS011;10931;52.164;5.518;2023-02-28T20:33:42;3.03;;;1.85;;
21539;SDS011;10931;52.164;5.518;2023-02-28T20:36:11;5.13;;;2.17;;
21539;SDS011;10931;52.164;5.518;2023-02-28T20:38:50;4.50;;;2.20;;
21539;SDS011;10931;52.164;5.518;2023-02-28T20:41:17;4.82;;;2.00;;
21539;SDS011;10931;52.164;5.518;2023-02-28T20:43:51;3.55;;;2.17;;